• Join FlightAware (Why Join?)
  • Login
  • US Flag 
09:28PM EST


 

Airport Tracker/Info


-or-


 

Live Flight TrackerFlight Track Log ✈ ASQ5874 ✈ 05-Jun-2013 ✈ KBDL - KIAD

Flight Track Log - Related Links

Times and Time Zones

All times are in EDT time to prevent confusion due to time zone crossing. See the ASQ5874 flight status page for this flight to view local times or setup timezone preferences in your user account.

Time Position Orientation Groundspeed Altitude Reporting Facility
EDT Latitude Longitude Course Direction KTS MPH feet Rate Location/Type
10:19AM 41.9500 -72.6717 236° Southwest 152 175 800  Level Boston Center
10:20AM 41.9939 -72.5992 51° Northeast 211 243 3,500 2,220 Climbing Boston Center
10:21AM 42.0250 -72.6414 315° West 144 166 5,900 2,100 Climbing Boston Center
10:22AM 41.9141 -73.0788 263° West  Level FlightAware Approximate
10:22AM 42.0186 -72.7194 264° West 149 171 7,800  Level Boston Center
10:23AM 41.9021 -73.2104 263° West  Level FlightAware Approximate
10:23AM 41.9997 -72.8172 255° West 207 238 9,800  Level Boston Center
10:24AM 41.8823 -73.3355 236° Southwest  Level FlightAware Approximate
10:24AM 41.9806 -72.9175 256° West 253 291 11,800  Level Boston Center
10:25AM 41.9611 -73.0264 257° West 277 319 14,000 2,100 Climbing Boston Center
10:26AM 41.9442 -73.1183 256° West 283 326 16,000 1,680 Climbing Boston Center
10:27AM 41.9203 -73.2269 254° West 278 320 17,400 900 Climbing Boston Center
10:28AM 41.8469 -73.3122 221° Southwest 319 367 17,900 420 Climbing Boston Center
10:29AM 41.7711 -73.4003 221° Southwest 350 403 18,300 900 Climbing Boston Center
10:30AM 41.6911 -73.4881 219° Southwest 367 422 19,800 1,680 Climbing Boston Center
10:31AM 41.6153 -73.5758 221° Southwest 372 428 21,700 1,800 Climbing Boston Center
10:33AM 41.5067 -73.6936 219° Southwest 366 421 24,400 1,620 Climbing New York Center
10:34AM 41.4358 -73.7736 220° Southwest 353 406 25,800 1,020 Climbing New York Center
10:35AM 41.3628 -73.8561 220° Southwest 348 400 26,500 540 Climbing New York Center
10:36AM 41.2814 -73.9461 220° Southwest 362 417 27,000 540 Climbing New York Center
10:37AM 41.1997 -74.0361 220° Southwest 375 432 27,600 480 Climbing New York Center
10:38AM 41.1242 -74.1369 225° Southwest 381 438 28,000 180 Climbing New York Center
10:39AM 41.0667 -74.2442 235° Southwest 392 451 28,000  Level New York Center
10:40AM 41.0089 -74.3706 239° Southwest 404 465 28,000  Level New York Center
10:41AM 40.9506 -74.5047 240° Southwest 414 476 28,000  Level New York Center
10:42AM 40.8922 -74.6361 240° Southwest 420 483 28,000  Level New York Center
10:43AM 40.8228 -74.7800 238° Southwest 420 483 28,000  Level New York Center
10:44AM 40.7658 -74.9164 241° Southwest 426 490 28,000  Level New York Center
10:45AM 40.7050 -75.0469 238° Southwest 426 490 28,000  Level New York Center
10:46AM 40.6439 -75.1825 239° Southwest 426 490 28,000 -120 Level New York Center
10:47AM 40.5822 -75.3181 239° Southwest 426 490 27,800 -840 Descending New York Center
10:48AM 40.5186 -75.4531 238° Southwest 431 496 26,400 -1,500 Descending New York Center
10:49AM 40.4594 -75.5828 239° Southwest 426 490 24,800 -1,860 Descending New York Center
10:50AM 40.4022 -75.7067 239° Southwest 414 476 22,700 -2,160 Descending New York Center
10:51AM 40.3428 -75.8306 238° Southwest 407 468 20,600 -1,380 Descending New York Center
10:52AM 40.2900 -75.9383 237° Southwest 400 460 20,000 -300 Descending New York Center
10:53AM 40.2328 -76.0536 237° Southwest 395 455 20,000  Level New York Center
10:54AM 40.1772 -76.1744 239° Southwest 372 428 20,000 -120 Level New York Center
10:55AM 40.1222 -76.2842 237° Southwest 363 418 19,800 -600 Descending New York Center
10:57AM 40.0167 -76.5000 237° Southwest 351 404 18,300 -780 Descending Potomac TRACON
10:58AM 39.9667 -76.6167 241° Southwest 349 402 17,600 -780 Descending Potomac TRACON
10:59AM 39.9167 -76.7167 237° Southwest 351 404 16,800 -900 Descending Potomac TRACON
11:00AM 39.8667 -76.8167 237° Southwest 377 434 16,000 -1,620 Descending Potomac TRACON
11:01AM 39.8167 -76.9333 241° Southwest 373 429 13,800 -2,400 Descending Potomac TRACON
11:02AM 39.7667 -77.0500 241° Southwest 368 423 11,400 -1,920 Descending Potomac TRACON
11:03AM 39.7167 -77.1667 241° Southwest 358 412 10,000 -720 Descending Potomac TRACON
11:04AM 39.6667 -77.2667 237° Southwest 347 399 10,000 -420 Level Potomac TRACON
11:05AM 39.6000 -77.3333 218° Southwest 284 327 9,300 -1,260 Descending Potomac TRACON
11:06AM 39.5333 -77.3500 191° South 281 323 7,700 -1,200 Descending Potomac TRACON
11:07AM 39.4500 -77.3500 180° South 280 322 7,000 -720 Descending Potomac TRACON
11:08AM 39.3833 -77.3667 191° South 273 314 6,400 -1,020 Descending Potomac TRACON
11:09AM 39.3167 -77.3667 180° South 258 297 5,100 -840 Descending Potomac TRACON
11:10AM 39.2333 -77.3667 180° South 254 292 4,800 -600 Descending Potomac TRACON
11:10AM 39.1833 -77.3500 166° South 249 287 4,000 -420 Descending Potomac TRACON
11:11AM 39.1167 -77.3500 180° South 248 285 4,000  Level Potomac TRACON
11:12AM 39.0333 -77.3500 180° South 250 288 4,000 -300 Level Potomac TRACON
11:13AM 38.9667 -77.3500 180° South 254 292 3,500 -540 Descending Potomac TRACON